LFSO 210400Z AUTO 35004KT 9999 OVC049 M01/M01 Q1032

ElémentsDécodage
LFSO Station météo située sur l'aérodrome de NANCY Ochey
210400Z émis le 21 du mois à 04h00 UTC
AUTO Bulletin édité par un automate
35004KT vent du 350°, 04 noeuds
9999 visibilité horizontale supérieure à 10 Km
OVC049 couverture nuageuse totale (8/8) à 4900 pieds
M01/M01 température -01°C, point de rosée -01°C
 soit une humidité relative de 100%
Q1032 la pression au niveau de la mer (QNH) est de 1032 hPa